sensor_id;sensor_type;location;lat;lon;timestamp;P1;durP1;ratioP1;P2;durP2;ratioP2
12052;SDS011;6087;48.982;12.064;2023-12-29T00:01:52;6.83;;;5.67;;
12052;SDS011;6087;48.982;12.064;2023-12-29T00:04:19;7.30;;;5.37;;
12052;SDS011;6087;48.982;12.064;2023-12-29T00:06:46;6.53;;;5.53;;
12052;SDS011;6087;48.982;12.064;2023-12-29T00:09:14;5.80;;;5.03;;
12052;SDS011;6087;48.982;12.064;2023-12-29T00:11:41;6.67;;;5.03;;
12052;SDS011;6087;48.982;12.064;2023-12-29T00:14:09;7.93;;;5.23;;
12052;SDS011;6087;48.982;12.064;2023-12-29T00:16:36;6.07;;;5.47;;
12052;SDS011;6087;48.982;12.064;2023-12-29T00:19:03;8.13;;;5.50;;
12052;SDS011;6087;48.982;12.064;2023-12-29T00:21:30;7.47;;;5.70;;
12052;SDS011;6087;48.982;12.064;2023-12-29T00:23:57;9.67;;;5.77;;
12052;SDS011;6087;48.982;12.064;2023-12-29T00:26:24;8.13;;;5.63;;
12052;SDS011;6087;48.982;12.064;2023-12-29T00:28:51;8.23;;;6.27;;
12052;SDS011;6087;48.982;12.064;2023-12-29T00:31:22;7.83;;;5.63;;
12052;SDS011;6087;48.982;12.064;2023-12-29T00:33:50;7.30;;;5.90;;
12052;SDS011;6087;48.982;12.064;2023-12-29T00:36:18;9.00;;;6.37;;
12052;SDS011;6087;48.982;12.064;2023-12-29T00:38:49;7.50;;;5.50;;
12052;SDS011;6087;48.982;12.064;2023-12-29T00:41:16;8.43;;;5.93;;
12052;SDS011;6087;48.982;12.064;2023-12-29T00:43:43;6.20;;;5.20;;
12052;SDS011;6087;48.982;12.064;2023-12-29T00:46:16;6.07;;;5.30;;
12052;SDS011;6087;48.982;12.064;2023-12-29T00:48:44;7.73;;;5.03;;
12052;SDS011;6087;48.982;12.064;2023-12-29T00:51:11;7.30;;;5.73;;
12052;SDS011;6087;48.982;12.064;2023-12-29T00:53:38;7.17;;;5.77;;
12052;SDS011;6087;48.982;12.064;2023-12-29T00:56:09;6.60;;;5.33;;
12052;SDS011;6087;48.982;12.064;2023-12-29T00:58:36;8.20;;;5.53;;
12052;SDS011;6087;48.982;12.064;2023-12-29T01:01:04;5.60;;;5.00;;
12052;SDS011;6087;48.982;12.064;2023-12-29T01:03:33;6.73;;;4.77;;
12052;SDS011;6087;48.982;12.064;2023-12-29T01:06:01;7.43;;;5.30;;
12052;SDS011;6087;48.982;12.064;2023-12-29T01:08:29;6.83;;;5.30;;
12052;SDS011;6087;48.982;12.064;2023-12-29T01:10:56;7.03;;;5.23;;
12052;SDS011;6087;48.982;12.064;2023-12-29T01:13:22;8.13;;;6.37;;
12052;SDS011;6087;48.982;12.064;2023-12-29T01:15:49;7.97;;;5.80;;
12052;SDS011;6087;48.982;12.064;2023-12-29T01:18:16;7.50;;;5.67;;
12052;SDS011;6087;48.982;12.064;2023-12-29T01:20:43;6.53;;;5.70;;
12052;SDS011;6087;48.982;12.064;2023-12-29T01:23:12;7.30;;;5.70;;
12052;SDS011;6087;48.982;12.064;2023-12-29T01:25:39;7.57;;;5.23;;
12052;SDS011;6087;48.982;12.064;2023-12-29T01:28:06;6.87;;;5.27;;
12052;SDS011;6087;48.982;12.064;2023-12-29T01:30:33;5.77;;;5.07;;
12052;SDS011;6087;48.982;12.064;2023-12-29T01:32:59;6.33;;;5.30;;
12052;SDS011;6087;48.982;12.064;2023-12-29T01:35:26;5.77;;;4.37;;
12052;SDS011;6087;48.982;12.064;2023-12-29T01:37:53;8.03;;;4.63;;
12052;SDS011;6087;48.982;12.064;2023-12-29T01:40:23;6.43;;;4.43;;
12052;SDS011;6087;48.982;12.064;2023-12-29T01:42:50;5.90;;;4.87;;
12052;SDS011;6087;48.982;12.064;2023-12-29T01:45:20;5.77;;;4.23;;
12052;SDS011;6087;48.982;12.064;2023-12-29T01:47:48;4.40;;;3.90;;
12052;SDS011;6087;48.982;12.064;2023-12-29T01:50:19;5.67;;;3.70;;
12052;SDS011;6087;48.982;12.064;2023-12-29T01:52:48;5.80;;;3.93;;
12052;SDS011;6087;48.982;12.064;2023-12-29T01:55:20;5.87;;;4.13;;
12052;SDS011;6087;48.982;12.064;2023-12-29T01:57:49;4.60;;;4.07;;
12052;SDS011;6087;48.982;12.064;2023-12-29T02:00:17;4.30;;;3.90;;
12052;SDS011;6087;48.982;12.064;2023-12-29T02:02:49;3.80;;;3.50;;
12052;SDS011;6087;48.982;12.064;2023-12-29T02:05:17;4.67;;;3.90;;
12052;SDS011;6087;48.982;12.064;2023-12-29T02:07:46;4.90;;;3.70;;
12052;SDS011;6087;48.982;12.064;2023-12-29T02:10:17;3.70;;;3.20;;
12052;SDS011;6087;48.982;12.064;2023-12-29T02:12:46;4.10;;;3.70;;
12052;SDS011;6087;48.982;12.064;2023-12-29T02:15:19;6.43;;;4.63;;
12052;SDS011;6087;48.982;12.064;2023-12-29T02:17:47;4.57;;;3.80;;
12052;SDS011;6087;48.982;12.064;2023-12-29T02:20:18;5.27;;;3.30;;
12052;SDS011;6087;48.982;12.064;2023-12-29T02:22:48;4.17;;;2.53;;
12052;SDS011;6087;48.982;12.064;2023-12-29T02:25:16;3.47;;;2.80;;
12052;SDS011;6087;48.982;12.064;2023-12-29T02:27:46;3.70;;;2.53;;
12052;SDS011;6087;48.982;12.064;2023-12-29T02:30:21;5.60;;;3.03;;
12052;SDS011;6087;48.982;12.064;2023-12-29T02:32:53;3.00;;;2.63;;
12052;SDS011;6087;48.982;12.064;2023-12-29T02:35:24;3.00;;;2.40;;
12052;SDS011;6087;48.982;12.064;2023-12-29T02:37:53;3.87;;;3.07;;
12052;SDS011;6087;48.982;12.064;2023-12-29T02:40:22;3.13;;;2.60;;
12052;SDS011;6087;48.982;12.064;2023-12-29T02:42:50;2.97;;;2.70;;
12052;SDS011;6087;48.982;12.064;2023-12-29T02:45:23;3.83;;;3.00;;
12052;SDS011;6087;48.982;12.064;2023-12-29T02:47:50;7.97;;;4.73;;
12052;SDS011;6087;48.982;12.064;2023-12-29T02:50:17;5.50;;;3.83;;
12052;SDS011;6087;48.982;12.064;2023-12-29T02:52:43;3.33;;;3.03;;
12052;SDS011;6087;48.982;12.064;2023-12-29T02:55:18;3.43;;;3.10;;
12052;SDS011;6087;48.982;12.064;2023-12-29T02:57:47;4.10;;;3.10;;
12052;SDS011;6087;48.982;12.064;2023-12-29T03:00:14;3.47;;;2.93;;
12052;SDS011;6087;48.982;12.064;2023-12-29T03:02:42;3.30;;;2.50;;
12052;SDS011;6087;48.982;12.064;2023-12-29T03:05:15;2.80;;;2.57;;
12052;SDS011;6087;48.982;12.064;2023-12-29T03:07:42;3.40;;;2.70;;
12052;SDS011;6087;48.982;12.064;2023-12-29T03:10:09;4.03;;;2.90;;
12052;SDS011;6087;48.982;12.064;2023-12-29T03:12:36;3.10;;;2.50;;
12052;SDS011;6087;48.982;12.064;2023-12-29T03:15:05;4.13;;;2.70;;
12052;SDS011;6087;48.982;12.064;2023-12-29T03:17:32;3.40;;;2.77;;
12052;SDS011;6087;48.982;12.064;2023-12-29T03:19:59;2.97;;;2.53;;
12052;SDS011;6087;48.982;12.064;2023-12-29T03:22:27;2.90;;;2.47;;
12052;SDS011;6087;48.982;12.064;2023-12-29T03:24:57;3.50;;;3.10;;
12052;SDS011;6087;48.982;12.064;2023-12-29T03:27:24;4.30;;;3.00;;
12052;SDS011;6087;48.982;12.064;2023-12-29T03:29:51;3.53;;;2.50;;
12052;SDS011;6087;48.982;12.064;2023-12-29T03:32:19;3.50;;;2.60;;
12052;SDS011;6087;48.982;12.064;2023-12-29T03:34:46;3.60;;;2.30;;
12052;SDS011;6087;48.982;12.064;2023-12-29T03:37:19;2.97;;;2.40;;
12052;SDS011;6087;48.982;12.064;2023-12-29T03:39:46;2.73;;;2.47;;
12052;SDS011;6087;48.982;12.064;2023-12-29T03:42:13;3.00;;;2.60;;
12052;SDS011;6087;48.982;12.064;2023-12-29T03:44:40;4.20;;;2.80;;
12052;SDS011;6087;48.982;12.064;2023-12-29T03:47:07;3.13;;;2.73;;
12052;SDS011;6087;48.982;12.064;2023-12-29T03:49:37;4.40;;;2.50;;
12052;SDS011;6087;48.982;12.064;2023-12-29T03:52:04;3.53;;;2.57;;
12052;SDS011;6087;48.982;12.064;2023-12-29T03:54:31;4.50;;;2.60;;
12052;SDS011;6087;48.982;12.064;2023-12-29T03:56:58;4.90;;;3.10;;
12052;SDS011;6087;48.982;12.064;2023-12-29T03:59:25;3.13;;;2.60;;
12052;SDS011;6087;48.982;12.064;2023-12-29T04:01:53;4.23;;;3.03;;
12052;SDS011;6087;48.982;12.064;2023-12-29T04:04:20;6.20;;;2.50;;
12052;SDS011;6087;48.982;12.064;2023-12-29T04:06:48;2.93;;;2.60;;
12052;SDS011;6087;48.982;12.064;2023-12-29T04:09:15;4.50;;;3.13;;
12052;SDS011;6087;48.982;12.064;2023-12-29T04:11:42;6.80;;;4.20;;
12052;SDS011;6087;48.982;12.064;2023-12-29T04:14:12;4.73;;;2.30;;
12052;SDS011;6087;48.982;12.064;2023-12-29T04:16:39;6.57;;;2.67;;
12052;SDS011;6087;48.982;12.064;2023-12-29T04:19:06;3.70;;;2.77;;
12052;SDS011;6087;48.982;12.064;2023-12-29T04:21:33;4.30;;;3.07;;
12052;SDS011;6087;48.982;12.064;2023-12-29T04:24:01;6.13;;;2.83;;
12052;SDS011;6087;48.982;12.064;2023-12-29T04:26:29;3.83;;;2.97;;
12052;SDS011;6087;48.982;12.064;2023-12-29T04:28:56;5.57;;;3.10;;
12052;SDS011;6087;48.982;12.064;2023-12-29T04:31:22;3.00;;;2.60;;
12052;SDS011;6087;48.982;12.064;2023-12-29T04:33:49;3.63;;;3.30;;
12052;SDS011;6087;48.982;12.064;2023-12-29T04:36:16;3.97;;;3.17;;
12052;SDS011;6087;48.982;12.064;2023-12-29T04:38:43;3.37;;;2.90;;
12052;SDS011;6087;48.982;12.064;2023-12-29T04:41:12;3.77;;;3.27;;
12052;SDS011;6087;48.982;12.064;2023-12-29T04:43:39;3.43;;;3.10;;
12052;SDS011;6087;48.982;12.064;2023-12-29T04:46:06;3.33;;;2.53;;
12052;SDS011;6087;48.982;12.064;2023-12-29T04:48:36;4.77;;;3.20;;
12052;SDS011;6087;48.982;12.064;2023-12-29T04:51:03;3.50;;;3.20;;
12052;SDS011;6087;48.982;12.064;2023-12-29T04:53:30;4.43;;;3.23;;
12052;SDS011;6087;48.982;12.064;2023-12-29T04:55:57;6.23;;;3.03;;
12052;SDS011;6087;48.982;12.064;2023-12-29T04:58:26;3.40;;;3.10;;
12052;SDS011;6087;48.982;12.064;2023-12-29T05:00:53;3.80;;;3.00;;
12052;SDS011;6087;48.982;12.064;2023-12-29T05:03:20;3.77;;;2.90;;
12052;SDS011;6087;48.982;12.064;2023-12-29T05:05:47;7.33;;;3.30;;
12052;SDS011;6087;48.982;12.064;2023-12-29T05:08:14;4.50;;;3.10;;
12052;SDS011;6087;48.982;12.064;2023-12-29T05:10:41;3.17;;;2.97;;
12052;SDS011;6087;48.982;12.064;2023-12-29T05:13:07;4.30;;;2.70;;
12052;SDS011;6087;48.982;12.064;2023-12-29T05:15:38;4.33;;;3.20;;
12052;SDS011;6087;48.982;12.064;2023-12-29T05:18:05;5.43;;;3.30;;
12052;SDS011;6087;48.982;12.064;2023-12-29T05:20:35;3.17;;;2.50;;
12052;SDS011;6087;48.982;12.064;2023-12-29T05:23:03;3.53;;;2.90;;
12052;SDS011;6087;48.982;12.064;2023-12-29T05:25:33;3.10;;;2.73;;
12052;SDS011;6087;48.982;12.064;2023-12-29T05:28:00;4.97;;;3.30;;
12052;SDS011;6087;48.982;12.064;2023-12-29T05:30:27;4.87;;;3.10;;
12052;SDS011;6087;48.982;12.064;2023-12-29T05:33:02;3.97;;;2.87;;
12052;SDS011;6087;48.982;12.064;2023-12-29T05:35:30;3.53;;;2.93;;
12052;SDS011;6087;48.982;12.064;2023-12-29T05:38:00;3.40;;;2.83;;
12052;SDS011;6087;48.982;12.064;2023-12-29T05:40:30;4.70;;;2.93;;
12052;SDS011;6087;48.982;12.064;2023-12-29T05:43:00;3.87;;;2.80;;
12052;SDS011;6087;48.982;12.064;2023-12-29T05:45:26;3.33;;;2.87;;
12052;SDS011;6087;48.982;12.064;2023-12-29T05:47:53;2.60;;;2.40;;
12052;SDS011;6087;48.982;12.064;2023-12-29T05:50:22;6.37;;;3.20;;
12052;SDS011;6087;48.982;12.064;2023-12-29T05:52:49;4.27;;;3.20;;
12052;SDS011;6087;48.982;12.064;2023-12-29T05:55:17;2.53;;;2.33;;
12052;SDS011;6087;48.982;12.064;2023-12-29T05:57:44;5.03;;;3.10;;
12052;SDS011;6087;48.982;12.064;2023-12-29T06:00:11;3.93;;;3.00;;
12052;SDS011;6087;48.982;12.064;2023-12-29T06:02:40;4.07;;;2.90;;
12052;SDS011;6087;48.982;12.064;2023-12-29T06:05:08;2.87;;;2.63;;
12052;SDS011;6087;48.982;12.064;2023-12-29T06:07:38;3.77;;;3.20;;
12052;SDS011;6087;48.982;12.064;2023-12-29T06:10:05;4.23;;;3.23;;
12052;SDS011;6087;48.982;12.064;2023-12-29T06:12:34;4.47;;;2.30;;
12052;SDS011;6087;48.982;12.064;2023-12-29T06:15:02;5.03;;;2.47;;
12052;SDS011;6087;48.982;12.064;2023-12-29T06:17:29;4.30;;;2.63;;
12052;SDS011;6087;48.982;12.064;2023-12-29T06:19:57;3.00;;;2.70;;
12052;SDS011;6087;48.982;12.064;2023-12-29T06:22:26;3.43;;;2.97;;
12052;SDS011;6087;48.982;12.064;2023-12-29T06:24:55;4.23;;;3.10;;
12052;SDS011;6087;48.982;12.064;2023-12-29T06:27:22;3.10;;;2.80;;
12052;SDS011;6087;48.982;12.064;2023-12-29T06:29:49;5.13;;;3.23;;
12052;SDS011;6087;48.982;12.064;2023-12-29T06:32:16;4.17;;;3.23;;
12052;SDS011;6087;48.982;12.064;2023-12-29T06:34:43;3.70;;;2.80;;
12052;SDS011;6087;48.982;12.064;2023-12-29T06:37:10;5.07;;;3.00;;
12052;SDS011;6087;48.982;12.064;2023-12-29T06:39:37;2.97;;;2.67;;
12052;SDS011;6087;48.982;12.064;2023-12-29T06:42:06;3.30;;;2.97;;
12052;SDS011;6087;48.982;12.064;2023-12-29T06:44:33;3.93;;;3.20;;
12052;SDS011;6087;48.982;12.064;2023-12-29T06:47:00;3.17;;;2.50;;
12052;SDS011;6087;48.982;12.064;2023-12-29T06:49:30;4.43;;;3.10;;
12052;SDS011;6087;48.982;12.064;2023-12-29T06:51:57;3.60;;;2.70;;
12052;SDS011;6087;48.982;12.064;2023-12-29T06:54:24;3.63;;;2.60;;
12052;SDS011;6087;48.982;12.064;2023-12-29T06:56:53;3.57;;;2.70;;
12052;SDS011;6087;48.982;12.064;2023-12-29T06:59:22;5.47;;;3.10;;
12052;SDS011;6087;48.982;12.064;2023-12-29T07:01:49;3.07;;;2.60;;
12052;SDS011;6087;48.982;12.064;2023-12-29T07:04:16;3.97;;;2.73;;
12052;SDS011;6087;48.982;12.064;2023-12-29T07:06:43;3.60;;;2.60;;
12052;SDS011;6087;48.982;12.064;2023-12-29T07:09:10;5.73;;;2.90;;
12052;SDS011;6087;48.982;12.064;2023-12-29T07:11:37;3.77;;;3.03;;
12052;SDS011;6087;48.982;12.064;2023-12-29T07:14:04;2.60;;;2.30;;
12052;SDS011;6087;48.982;12.064;2023-12-29T07:16:32;3.20;;;2.60;;
12052;SDS011;6087;48.982;12.064;2023-12-29T07:18:59;3.07;;;2.60;;
12052;SDS011;6087;48.982;12.064;2023-12-29T07:21:26;4.50;;;2.93;;
12052;SDS011;6087;48.982;12.064;2023-12-29T07:23:53;3.23;;;2.93;;
12052;SDS011;6087;48.982;12.064;2023-12-29T07:26:20;4.77;;;2.80;;
12052;SDS011;6087;48.982;12.064;2023-12-29T07:28:47;3.47;;;2.67;;
12052;SDS011;6087;48.982;12.064;2023-12-29T07:31:19;6.30;;;3.00;;
12052;SDS011;6087;48.982;12.064;2023-12-29T07:33:47;3.73;;;2.60;;
12052;SDS011;6087;48.982;12.064;2023-12-29T07:36:15;4.00;;;3.30;;
12052;SDS011;6087;48.982;12.064;2023-12-29T07:38:42;4.63;;;2.93;;
12052;SDS011;6087;48.982;12.064;2023-12-29T07:41:09;3.37;;;2.50;;
12052;SDS011;6087;48.982;12.064;2023-12-29T07:43:36;4.80;;;3.07;;
12052;SDS011;6087;48.982;12.064;2023-12-29T07:46:03;4.10;;;3.00;;
12052;SDS011;6087;48.982;12.064;2023-12-29T07:48:30;5.10;;;2.27;;
12052;SDS011;6087;48.982;12.064;2023-12-29T07:50:58;3.20;;;2.90;;
12052;SDS011;6087;48.982;12.064;2023-12-29T07:53:31;3.67;;;3.00;;
12052;SDS011;6087;48.982;12.064;2023-12-29T07:55:58;4.93;;;3.07;;
12052;SDS011;6087;48.982;12.064;2023-12-29T07:58:25;4.10;;;2.93;;
12052;SDS011;6087;48.982;12.064;2023-12-29T08:00:52;3.33;;;3.03;;
12052;SDS011;6087;48.982;12.064;2023-12-29T08:03:19;3.33;;;3.03;;
12052;SDS011;6087;48.982;12.064;2023-12-29T08:05:46;6.93;;;3.37;;
12052;SDS011;6087;48.982;12.064;2023-12-29T08:08:14;4.43;;;3.43;;
12052;SDS011;6087;48.982;12.064;2023-12-29T08:10:41;3.60;;;2.93;;
12052;SDS011;6087;48.982;12.064;2023-12-29T08:13:08;4.20;;;2.90;;
12052;SDS011;6087;48.982;12.064;2023-12-29T08:15:35;2.97;;;2.63;;
12052;SDS011;6087;48.982;12.064;2023-12-29T08:18:03;4.90;;;3.40;;
12052;SDS011;6087;48.982;12.064;2023-12-29T08:20:30;4.80;;;2.93;;
12052;SDS011;6087;48.982;12.064;2023-12-29T08:22:57;3.43;;;3.10;;
12052;SDS011;6087;48.982;12.064;2023-12-29T08:25:28;2.90;;;2.47;;
12052;SDS011;6087;48.982;12.064;2023-12-29T08:27:55;6.40;;;3.13;;
12052;SDS011;6087;48.982;12.064;2023-12-29T08:30:22;4.37;;;2.80;;
12052;SDS011;6087;48.982;12.064;2023-12-29T08:32:49;4.30;;;2.57;;
12052;SDS011;6087;48.982;12.064;2023-12-29T08:35:16;4.63;;;3.20;;
12052;SDS011;6087;48.982;12.064;2023-12-29T08:37:43;3.50;;;3.13;;
12052;SDS011;6087;48.982;12.064;2023-12-29T08:40:11;4.27;;;2.83;;
12052;SDS011;6087;48.982;12.064;2023-12-29T08:42:39;4.10;;;3.07;;
12052;SDS011;6087;48.982;12.064;2023-12-29T08:45:06;3.93;;;3.03;;
12052;SDS011;6087;48.982;12.064;2023-12-29T08:47:34;4.33;;;3.27;;
12052;SDS011;6087;48.982;12.064;2023-12-29T08:50:01;4.30;;;2.83;;
12052;SDS011;6087;48.982;12.064;2023-12-29T08:52:28;4.80;;;3.00;;
12052;SDS011;6087;48.982;12.064;2023-12-29T08:54:55;4.40;;;2.77;;
12052;SDS011;6087;48.982;12.064;2023-12-29T08:57:22;4.23;;;3.03;;
12052;SDS011;6087;48.982;12.064;2023-12-29T08:59:50;7.03;;;3.47;;
12052;SDS011;6087;48.982;12.064;2023-12-29T09:02:17;6.87;;;3.23;;
12052;SDS011;6087;48.982;12.064;2023-12-29T09:04:44;4.73;;;3.20;;
12052;SDS011;6087;48.982;12.064;2023-12-29T09:07:17;3.37;;;2.83;;
12052;SDS011;6087;48.982;12.064;2023-12-29T09:09:44;4.03;;;3.07;;
12052;SDS011;6087;48.982;12.064;2023-12-29T09:12:17;4.63;;;2.90;;
12052;SDS011;6087;48.982;12.064;2023-12-29T09:14:46;3.83;;;2.93;;
12052;SDS011;6087;48.982;12.064;2023-12-29T09:17:22;3.53;;;2.63;;
12052;SDS011;6087;48.982;12.064;2023-12-29T09:19:49;2.87;;;2.53;;
12052;SDS011;6087;48.982;12.064;2023-12-29T09:22:16;4.30;;;3.00;;
12052;SDS011;6087;48.982;12.064;2023-12-29T09:24:43;3.43;;;2.70;;
12052;SDS011;6087;48.982;12.064;2023-12-29T09:27:10;6.63;;;3.00;;
12052;SDS011;6087;48.982;12.064;2023-12-29T09:29:38;3.93;;;3.07;;
12052;SDS011;6087;48.982;12.064;2023-12-29T09:32:05;3.90;;;3.60;;
12052;SDS011;6087;48.982;12.064;2023-12-29T09:34:34;5.40;;;2.87;;
12052;SDS011;6087;48.982;12.064;2023-12-29T09:37:01;4.50;;;3.10;;
12052;SDS011;6087;48.982;12.064;2023-12-29T09:39:27;3.80;;;3.23;;
12052;SDS011;6087;48.982;12.064;2023-12-29T09:41:58;4.03;;;2.70;;
12052;SDS011;6087;48.982;12.064;2023-12-29T09:44:27;3.63;;;2.93;;
12052;SDS011;6087;48.982;12.064;2023-12-29T09:46:54;3.70;;;2.80;;
12052;SDS011;6087;48.982;12.064;2023-12-29T09:49:23;4.27;;;2.80;;
12052;SDS011;6087;48.982;12.064;2023-12-29T09:51:53;2.80;;;2.53;;
12052;SDS011;6087;48.982;12.064;2023-12-29T09:54:20;3.13;;;2.83;;
12052;SDS011;6087;48.982;12.064;2023-12-29T09:56:48;2.80;;;2.50;;
12052;SDS011;6087;48.982;12.064;2023-12-29T09:59:16;4.00;;;2.80;;
12052;SDS011;6087;48.982;12.064;2023-12-29T10:01:46;4.33;;;3.10;;
12052;SDS011;6087;48.982;12.064;2023-12-29T10:04:14;3.83;;;3.23;;
12052;SDS011;6087;48.982;12.064;2023-12-29T10:06:41;3.15;;;2.45;;
12052;SDS011;6087;48.982;12.064;2023-12-29T10:09:13;7.33;;;2.93;;
12052;SDS011;6087;48.982;12.064;2023-12-29T10:11:42;2.28;;;2.08;;
12052;SDS011;6087;48.982;12.064;2023-12-29T10:14:15;3.57;;;2.73;;
12052;SDS011;6087;48.982;12.064;2023-12-29T10:16:50;2.58;;;2.38;;
12052;SDS011;6087;48.982;12.064;2023-12-29T10:19:25;3.17;;;2.50;;
12052;SDS011;6087;48.982;12.064;2023-12-29T10:21:59;2.87;;;2.60;;
12052;SDS011;6087;48.982;12.064;2023-12-29T10:24:33;4.32;;;2.78;;
12052;SDS011;6087;48.982;12.064;2023-12-29T10:27:05;2.97;;;2.42;;
12052;SDS011;6087;48.982;12.064;2023-12-29T10:29:32;3.03;;;2.70;;
12052;SDS011;6087;48.982;12.064;2023-12-29T10:31:59;3.05;;;2.70;;
12052;SDS011;6087;48.982;12.064;2023-12-29T10:34:26;4.70;;;2.78;;
12052;SDS011;6087;48.982;12.064;2023-12-29T10:36:54;3.88;;;2.70;;
12052;SDS011;6087;48.982;12.064;2023-12-29T10:39:22;5.40;;;2.50;;
12052;SDS011;6087;48.982;12.064;2023-12-29T10:41:51;4.00;;;2.70;;
12052;SDS011;6087;48.982;12.064;2023-12-29T10:44:30;4.03;;;2.65;;
12052;SDS011;6087;48.982;12.064;2023-12-29T10:46:57;2.55;;;2.35;;
12052;SDS011;6087;48.982;12.064;2023-12-29T10:49:24;2.75;;;2.53;;
12052;SDS011;6087;48.982;12.064;2023-12-29T10:51:51;2.97;;;2.40;;
12052;SDS011;6087;48.982;12.064;2023-12-29T10:54:20;2.40;;;2.05;;
12052;SDS011;6087;48.982;12.064;2023-12-29T10:57:01;2.03;;;1.83;;
12052;SDS011;6087;48.982;12.064;2023-12-29T10:59:36;2.78;;;2.53;;
12052;SDS011;6087;48.982;12.064;2023-12-29T11:02:04;2.63;;;2.40;;
12052;SDS011;6087;48.982;12.064;2023-12-29T11:04:33;3.00;;;2.70;;
12052;SDS011;6087;48.982;12.064;2023-12-29T11:07:00;2.60;;;2.33;;
12052;SDS011;6087;48.982;12.064;2023-12-29T11:09:27;2.78;;;2.47;;
12052;SDS011;6087;48.982;12.064;2023-12-29T11:11:55;3.85;;;2.42;;
12052;SDS011;6087;48.982;12.064;2023-12-29T11:14:25;3.70;;;2.40;;
12052;SDS011;6087;48.982;12.064;2023-12-29T11:16:56;2.53;;;2.05;;
12052;SDS011;6087;48.982;12.064;2023-12-29T11:19:25;3.42;;;2.13;;
12052;SDS011;6087;48.982;12.064;2023-12-29T11:21:54;4.30;;;2.58;;
12052;SDS011;6087;48.982;12.064;2023-12-29T11:24:22;2.72;;;2.15;;
12052;SDS011;6087;48.982;12.064;2023-12-29T11:26:50;3.28;;;2.50;;
12052;SDS011;6087;48.982;12.064;2023-12-29T11:29:17;2.00;;;1.90;;
12052;SDS011;6087;48.982;12.064;2023-12-29T11:31:46;2.75;;;2.55;;
12052;SDS011;6087;48.982;12.064;2023-12-29T11:34:18;3.03;;;2.35;;
12052;SDS011;6087;48.982;12.064;2023-12-29T11:36:50;2.65;;;2.33;;
12052;SDS011;6087;48.982;12.064;2023-12-29T11:39:20;3.47;;;2.13;;
12052;SDS011;6087;48.982;12.064;2023-12-29T11:41:56;2.92;;;2.15;;
12052;SDS011;6087;48.982;12.064;2023-12-29T11:44:28;2.50;;;2.22;;
12052;SDS011;6087;48.982;12.064;2023-12-29T11:46:59;3.70;;;2.17;;
12052;SDS011;6087;48.982;12.064;2023-12-29T11:49:27;3.30;;;2.58;;
12052;SDS011;6087;48.982;12.064;2023-12-29T11:52:32;3.15;;;1.95;;
12052;SDS011;6087;48.982;12.064;2023-12-29T11:55:06;2.03;;;1.63;;
12052;SDS011;6087;48.982;12.064;2023-12-29T11:57:34;2.22;;;1.80;;
12052;SDS011;6087;48.982;12.064;2023-12-29T12:00:03;2.05;;;1.80;;
12052;SDS011;6087;48.982;12.064;2023-12-29T12:02:33;2.17;;;1.98;;
12052;SDS011;6087;48.982;12.064;2023-12-29T12:05:00;4.28;;;1.80;;
12052;SDS011;6087;48.982;12.064;2023-12-29T12:10:32;4.03;;;2.00;;
12052;SDS011;6087;48.982;12.064;2023-12-29T12:13:03;2.00;;;1.67;;
12052;SDS011;6087;48.982;12.064;2023-12-29T12:15:31;2.35;;;1.73;;
12052;SDS011;6087;48.982;12.064;2023-12-29T12:18:00;2.60;;;1.60;;
12052;SDS011;6087;48.982;12.064;2023-12-29T12:20:31;1.83;;;1.65;;
12052;SDS011;6087;48.982;12.064;2023-12-29T12:23:02;1.48;;;1.38;;
12052;SDS011;6087;48.982;12.064;2023-12-29T12:25:34;2.25;;;1.70;;
12052;SDS011;6087;48.982;12.064;2023-12-29T12:28:05;1.45;;;1.35;;
12052;SDS011;6087;48.982;12.064;2023-12-29T12:30:32;1.65;;;1.30;;
12052;SDS011;6087;48.982;12.064;2023-12-29T12:33:02;1.35;;;1.25;;
12052;SDS011;6087;48.982;12.064;2023-12-29T12:35:30;1.80;;;1.58;;
12052;SDS011;6087;48.982;12.064;2023-12-29T12:38:06;2.33;;;1.73;;
12052;SDS011;6087;48.982;12.064;2023-12-29T12:40:34;2.60;;;1.58;;
12052;SDS011;6087;48.982;12.064;2023-12-29T12:43:01;1.88;;;1.75;;
12052;SDS011;6087;48.982;12.064;2023-12-29T12:45:29;1.95;;;1.40;;
12052;SDS011;6087;48.982;12.064;2023-12-29T12:48:03;3.42;;;1.48;;
12052;SDS011;6087;48.982;12.064;2023-12-29T12:50:41;1.83;;;1.70;;
12052;SDS011;6087;48.982;12.064;2023-12-29T12:53:10;2.03;;;1.40;;
12052;SDS011;6087;48.982;12.064;2023-12-29T12:55:39;2.67;;;1.70;;
12052;SDS011;6087;48.982;12.064;2023-12-29T12:58:07;3.03;;;1.80;;
12052;SDS011;6087;48.982;12.064;2023-12-29T13:00:45;1.30;;;1.20;;
12052;SDS011;6087;48.982;12.064;2023-12-29T13:03:16;1.73;;;1.50;;
12052;SDS011;6087;48.982;12.064;2023-12-29T13:05:43;1.77;;;1.40;;
12052;SDS011;6087;48.982;12.064;2023-12-29T13:08:11;2.53;;;1.63;;
12052;SDS011;6087;48.982;12.064;2023-12-29T13:10:40;1.67;;;1.58;;
12052;SDS011;6087;48.982;12.064;2023-12-29T13:13:07;1.50;;;1.40;;
12052;SDS011;6087;48.982;12.064;2023-12-29T13:15:44;1.77;;;1.50;;
12052;SDS011;6087;48.982;12.064;2023-12-29T13:18:12;1.50;;;1.40;;
12052;SDS011;6087;48.982;12.064;2023-12-29T13:20:44;1.63;;;1.20;;
12052;SDS011;6087;48.982;12.064;2023-12-29T13:23:12;1.85;;;1.75;;
12052;SDS011;6087;48.982;12.064;2023-12-29T13:25:39;1.60;;;1.50;;
12052;SDS011;6087;48.982;12.064;2023-12-29T13:28:09;1.85;;;1.15;;
12052;SDS011;6087;48.982;12.064;2023-12-29T13:30:36;1.77;;;1.30;;
12052;SDS011;6087;48.982;12.064;2023-12-29T13:33:08;1.65;;;1.55;;
12052;SDS011;6087;48.982;12.064;2023-12-29T13:35:40;2.78;;;1.40;;
12052;SDS011;6087;48.982;12.064;2023-12-29T13:38:16;1.55;;;1.45;;
12052;SDS011;6087;48.982;12.064;2023-12-29T13:40:51;1.30;;;1.23;;
12052;SDS011;6087;48.982;12.064;2023-12-29T13:43:25;1.20;;;1.15;;
12052;SDS011;6087;48.982;12.064;2023-12-29T13:45:56;1.40;;;1.30;;
12052;SDS011;6087;48.982;12.064;2023-12-29T13:48:24;1.20;;;1.13;;
12052;SDS011;6087;48.982;12.064;2023-12-29T13:50:54;1.75;;;1.48;;
12052;SDS011;6087;48.982;12.064;2023-12-29T13:53:21;2.25;;;1.60;;
12052;SDS011;6087;48.982;12.064;2023-12-29T13:55:48;3.22;;;1.77;;
12052;SDS011;6087;48.982;12.064;2023-12-29T13:58:15;1.35;;;0.95;;
12052;SDS011;6087;48.982;12.064;2023-12-29T14:00:43;3.00;;;1.77;;
12052;SDS011;6087;48.982;12.064;2023-12-29T14:03:14;4.25;;;1.55;;
12052;SDS011;6087;48.982;12.064;2023-12-29T14:05:51;1.70;;;1.60;;
12052;SDS011;6087;48.982;12.064;2023-12-29T14:08:25;1.50;;;1.40;;
12052;SDS011;6087;48.982;12.064;2023-12-29T14:10:59;1.40;;;1.30;;
12052;SDS011;6087;48.982;12.064;2023-12-29T14:13:26;2.50;;;1.50;;
12052;SDS011;6087;48.982;12.064;2023-12-29T14:15:53;3.97;;;2.47;;
12052;SDS011;6087;48.982;12.064;2023-12-29T14:18:31;1.55;;;1.40;;
12052;SDS011;6087;48.982;12.064;2023-12-29T14:21:23;1.67;;;1.58;;
12052;SDS011;6087;48.982;12.064;2023-12-29T14:24:02;1.65;;;1.55;;
12052;SDS011;6087;48.982;12.064;2023-12-29T14:26:33;2.17;;;1.95;;
12052;SDS011;6087;48.982;12.064;2023-12-29T14:29:01;1.75;;;1.50;;
12052;SDS011;6087;48.982;12.064;2023-12-29T14:31:31;1.70;;;1.60;;
12052;SDS011;6087;48.982;12.064;2023-12-29T14:34:00;4.00;;;1.75;;
12052;SDS011;6087;48.982;12.064;2023-12-29T14:36:28;2.97;;;2.08;;
12052;SDS011;6087;48.982;12.064;2023-12-29T14:38:56;3.58;;;2.90;;
12052;SDS011;6087;48.982;12.064;2023-12-29T14:41:24;2.33;;;1.95;;
12052;SDS011;6087;48.982;12.064;2023-12-29T14:43:51;2.53;;;1.58;;
12052;SDS011;6087;48.982;12.064;2023-12-29T14:46:19;2.55;;;1.65;;
12052;SDS011;6087;48.982;12.064;2023-12-29T14:48:46;1.50;;;1.35;;
12052;SDS011;6087;48.982;12.064;2023-12-29T14:51:13;1.20;;;1.10;;
12052;SDS011;6087;48.982;12.064;2023-12-29T14:53:42;2.03;;;1.65;;
12052;SDS011;6087;48.982;12.064;2023-12-29T14:56:10;1.55;;;1.45;;
12052;SDS011;6087;48.982;12.064;2023-12-29T14:58:41;1.75;;;1.50;;
12052;SDS011;6087;48.982;12.064;2023-12-29T15:01:08;3.47;;;1.92;;